Gant Flair — D5IK8 — position and weather

sailwx.info

Track history (hours):
 
Tides and Currents Weather Stations Pressure Air Temp Water Temp Dewpoint Dewpoint Depression Visibility Wind Speed Wind Dir Waves Ship Positions

Gant Flair

Last reported at 2018-Jun-18 19:14 UTC. Time now 2018-Jun-20 13:23 UTC.
Position N 27°36' W 015°16'.

Length 169 m; draft 9.3 m.

Type: Cargo ship. MMSI: 636016926.

Date/timePositionNaut miles runAvg speedWind from/ knotsBaromVisibWave heightAir tempDewpointWater temp
2018-Jun-18 19:14N 27°36' W 015°16'312.2
2018-Jun-18 18:58N 27°39' W 015°15'612.0
2018-Jun-18 18:30N 27°43' W 015°12'612.0
2018-Jun-18 17:58N 27°49' W 015°09'612.2
2018-Jun-18 17:30N 27°54' W 015°06'612.1
2018-Jun-18 17:00N 28°00' W 015°04'612.1
2018-Jun-18 16:30N 28°06' W 015°01'612.1
2018-Jun-18 16:00N 28°12' W 014°59'611.8
2018-Jun-18 15:30N 28°17' W 014°57'611.8
2018-Jun-18 14:59N 28°23' W 014°54'612.1
2018-Jun-18 14:30N 28°29' W 014°53'612.0
2018-Jun-18 14:00N 28°34' W 014°51'611.6
2018-Jun-18 13:30N 28°40' W 014°49'6411.9
2018-Jun-18 08:05N 29°42' W 014°30'712.3
2018-Jun-18 07:29N 29°49' W 014°28'612.2
2018-Jun-18 07:00N 29°55' W 014°26'1612.0
2018-Jun-18 05:40N 30°10' W 014°21'211.8
2018-Jun-18 05:27N 30°13' W 014°20'48811.9
2018-Jun-16 12:16N 38°04' W 011°48'1611.8
2018-Jun-16 10:53N 38°20' W 011°43'411.9
2018-Jun-16 10:30N 38°24' W 011°41'612.2
2018-Jun-16 10:00N 38°30' W 011°39'612.1
2018-Jun-16 09:30N 38°36' W 011°37'611.9
2018-Jun-16 09:00N 38°42' W 011°35'612.0
2018-Jun-16 08:30N 38°48' W 011°33'611.9
2018-Jun-16 08:00N 38°54' W 011°31'612.0
2018-Jun-16 07:30N 38°59' W 011°29'612.2
2018-Jun-16 07:00N 39°05' W 011°27'612.1
2018-Jun-16 06:30N 39°11' W 011°25'611.9
2018-Jun-16 06:00N 39°17' W 011°23'611.9
2018-Jun-16 05:30N 39°23' W 011°22'611.9
2018-Jun-16 04:59N 39°29' W 011°20'611.8
2018-Jun-16 04:26N 39°35' W 011°17'511.8
2018-Jun-16 04:00N 39°40' W 011°15'612.0
2018-Jun-16 03:30N 39°45' W 011°13'611.9
2018-Jun-16 03:00N 39°51' W 011°11'612.1
2018-Jun-16 02:30N 39°57' W 011°09'1312.0
2018-Jun-16 01:27N 40°09' W 011°05'512.2
2018-Jun-16 01:00N 40°15' W 011°03'2312.2
2018-Jun-15 23:08N 40°37' W 010°55'212.5
2018-Jun-15 23:00N 40°38' W 010°55'612.3
2018-Jun-15 22:30N 40°44' W 010°53'612.3
2018-Jun-15 22:00N 40°50' W 010°51'612.0
2018-Jun-15 21:30N 40°56' W 010°49'611.9
2018-Jun-15 21:00N 41°01' W 010°47'1411.8
2018-Jun-15 19:49N 41°15' W 010°42'711.8
2018-Jun-15 19:13N 41°22' W 010°39'1812.2
2018-Jun-15 17:45N 41°39' W 010°33'412.2
2018-Jun-15 17:25N 41°43' W 010°32'512.3
2018-Jun-15 17:00N 41°48' W 010°30'2811.9
2018-Jun-15 14:40N 42°15' W 010°20'311.8
2018-Jun-15 14:25N 42°18' W 010°19'41011.6
2018-Jun-14 03:06N 48°28' W 006°08'2 9.0
2018-Jun-14 02:53N 48°30' W 006°07'4 9.0
2018-Jun-14 02:29N 48°33' W 006°05'4 9.0
2018-Jun-14 02:00N 48°37' W 006°02'5 9.3
2018-Jun-14 01:28N 48°41' W 005°58'5 9.9
2018-Jun-14 00:58N 48°46' W 005°55'510.1
2018-Jun-14 00:26N 48°51' W 005°52'710.5
2018-Jun-13 23:47N 48°55' W 005°45'1812.2
2018-Jun-13 22:19N 49°04' W 005°21'412.8
2018-Jun-13 21:58N 49°07' W 005°15'612.7
2018-Jun-13 21:30N 49°10' W 005°07'612.8
2018-Jun-13 21:00N 49°13' W 004°59'1212.2
2018-Jun-13 20:04N 49°19' W 004°44'1511.2
2018-Jun-13 18:42N 49°26' W 004°23'2610.1
2018-Jun-13 16:05N 49°40' W 003°48'2711.6
2018-Jun-13 13:45N 49°53' W 003°12'313.3
2018-Jun-13 13:30N 49°55' W 003°08'713.7
2018-Jun-13 13:00N 49°58' W 002°59'713.9
2018-Jun-13 12:30N 50°01' W 002°48'714.1
2018-Jun-13 12:00N 50°03' W 002°38'713.8
2018-Jun-13 11:29N 50°05' W 002°27'1212.9
2018-Jun-13 10:34N 50°08' W 002°09'112.1
2018-Jun-13 10:30N 50°08' W 002°08'611.6
2018-Jun-13 10:00N 50°10' W 001°60'510.7
2018-Jun-13 09:31N 50°11' W 001°52'5 9.8
2018-Jun-13 09:01N 50°12' W 001°44'5 9.2
2018-Jun-13 08:31N 50°14' W 001°37'4 8.8
2018-Jun-13 08:00N 50°15' W 001°31'4 8.4
2018-Jun-13 07:31N 50°16' W 001°24'4 8.4
2018-Jun-13 07:01N 50°17' W 001°18'4 8.5
2018-Jun-13 06:31N 50°18' W 001°12'4 8.8
2018-Jun-13 06:01N 50°20' W 001°05'5 9.8
2018-Jun-13 05:30N 50°21' W 000°58'611.1
2018-Jun-13 05:01N 50°22' W 000°49'812.0
2018-Jun-13 04:21N 50°24' W 000°37'412.6
2018-Jun-13 04:00N 50°26' W 000°31'713.0
2018-Jun-13 03:30N 50°28' W 000°21'2513.3
2018-Jun-13 01:37N 50°35' E 000°17'213.1
2018-Jun-13 01:30N 50°35' E 000°19'612.9
2018-Jun-13 01:00N 50°36' E 000°29'612.3
2018-Jun-13 00:30N 50°39' E 000°38'612.0
2018-Jun-13 00:00N 50°43' E 000°45'611.5
2018-Jun-12 23:30N 50°46' E 000°53'610.9
2018-Jun-12 22:56N 50°50' E 001°01'710.5
2018-Jun-12 22:15N 50°54' E 001°09'310.4
2018-Jun-12 22:00N 50°56' E 001°12'510.2
2018-Jun-12 21:30N 50°59' E 001°18'510.9
2018-Jun-12 21:01N 51°03' E 001°25'612.6
2018-Jun-12 20:30N 51°07' E 001°33'713.4
2018-Jun-12 20:00N 51°11' E 001°41'714.2
2018-Jun-12 19:30N 51°16' E 001°48'714.3
2018-Jun-12 19:01N 51°22' E 001°55'611.0
2018-Jun-12 18:30N 51°24' E 002°03'611.8
2018-Jun-12 18:01N 51°22' E 002°12'611.8
2018-Jun-12 17:30N 51°21' E 002°21'713.4
2018-Jun-12 17:01N 51°23' E 002°32'612.1
2018-Jun-12 16:30N 51°22' E 002°41'510.6
2018-Jun-12 16:00N 51°22' E 002°50'510.6
2018-Jun-12 15:30N 51°23' E 002°58'5 9.8
2018-Jun-12 15:00N 51°24' E 003°06'510.7
2018-Jun-12 14:30N 51°25' E 003°14'510.4
2018-Jun-12 14:00N 51°25' E 003°23'510.2
2018-Jun-12 13:30N 51°25' E 003°31'4 9.0
2018-Jun-12 13:00N 51°26' E 003°38'4 7.6
2018-Jun-12 12:31N 51°24' E 003°43'4 8.0
2018-Jun-12 12:00N 51°21' E 003°47'2 3.8
2018-Jun-12 11:30N 51°20' E 003°49'0 0.5
2018-Jun-12 11:00N 51°19' E 003°49'1 1.4
2018-Jun-12 10:30N 51°19' E 003°50'0 0.5
2018-Jun-12 09:58N 51°19' E 003°50'0 0.0
2018-Jun-12 09:28N 51°19' E 003°50'0 0.0
2018-Jun-12 08:58N 51°19' E 003°50'0 0.0
2018-Jun-12 08:28N 51°19' E 003°50'0 0.0
2018-Jun-12 07:58N 51°19' E 003°50'0 0.0
2018-Jun-12 07:28N 51°19' E 003°50'0 0.0
2018-Jun-12 06:58N 51°19' E 003°50'0 0.0
2018-Jun-12 06:28N 51°19' E 003°50'0 0.0
2018-Jun-12 05:58N 51°19' E 003°50'0 0.0
2018-Jun-12 05:28N 51°19' E 003°50'0 0.0
2018-Jun-12 04:58N 51°19' E 003°50'0 0.0
2018-Jun-12 04:28N 51°19' E 003°50'0 0.0
2018-Jun-12 03:58N 51°19' E 003°50'0 0.0
2018-Jun-12 03:28N 51°19' E 003°50'0 0.0
2018-Jun-12 02:58N 51°19' E 003°50'0 0.0
2018-Jun-12 02:28N 51°19' E 003°50'0 0.0
2018-Jun-12 01:58N 51°19' E 003°50'0 0.0
2018-Jun-12 01:28N 51°19' E 003°50'0 0.0
2018-Jun-12 00:58N 51°19' E 003°50'0 0.0
2018-Jun-12 00:28N 51°19' E 003°50'0 0.0
2018-Jun-11 23:58N 51°19' E 003°50'0 0.0
2018-Jun-11 23:28N 51°19' E 003°50'0 0.0
2018-Jun-11 22:58N 51°19' E 003°50'0 0.0
2018-Jun-11 22:28N 51°19' E 003°50'0 0.0
2018-Jun-11 21:58N 51°19' E 003°50'0 0.0
2018-Jun-11 21:28N 51°19' E 003°50'0 0.0
2018-Jun-11 20:58N 51°19' E 003°50'0 0.0
2018-Jun-11 20:28N 51°19' E 003°50'0 0.0
2018-Jun-11 19:58N 51°19' E 003°50'0 0.0
2018-Jun-11 19:28N 51°19' E 003°50'0 0.0
2018-Jun-11 18:58N 51°19' E 003°50'0 0.0
2018-Jun-11 18:28N 51°19' E 003°50'0 0.0
2018-Jun-11 17:58N 51°19' E 003°50'0 0.0
2018-Jun-11 17:28N 51°19' E 003°50'0 0.0
2018-Jun-11 16:58N 51°19' E 003°50'0 0.0
2018-Jun-11 16:28N 51°19' E 003°50'0 0.0
2018-Jun-11 15:58N 51°19' E 003°50'0 0.0
2018-Jun-11 15:28N 51°19' E 003°50'0 0.0
2018-Jun-11 14:58N 51°19' E 003°50'0 0.0
2018-Jun-11 14:28N 51°19' E 003°50'0 0.0
2018-Jun-11 13:58N 51°19' E 003°50'0 0.0
2018-Jun-11 13:28N 51°19' E 003°50'0 0.0
2018-Jun-11 12:58N 51°19' E 003°50'0 0.0
2018-Jun-11 12:28N 51°19' E 003°50'0 0.0
2018-Jun-11 11:58N 51°19' E 003°50'0 0.0
2018-Jun-11 11:28N 51°19' E 003°50'0 0.0
2018-Jun-11 10:58N 51°19' E 003°50'0 0.0
2018-Jun-11 10:28N 51°19' E 003°50'0 0.0
2018-Jun-11 09:58N 51°19' E 003°50'0 0.0
2018-Jun-11 09:28N 51°19' E 003°50'0 0.0
2018-Jun-11 08:58N 51°19' E 003°50'0 0.0
2018-Jun-11 08:28N 51°19' E 003°50'0 0.0
2018-Jun-11 07:58N 51°19' E 003°50'0 0.0
2018-Jun-11 07:28N 51°19' E 003°50'0 0.0
2018-Jun-11 06:58N 51°19' E 003°50'0 0.0
2018-Jun-11 06:28N 51°19' E 003°50'0 0.0
2018-Jun-11 05:58N 51°19' E 003°50'0 0.0
2018-Jun-11 05:28N 51°19' E 003°50'0 0.0
2018-Jun-11 04:58N 51°19' E 003°50'0 0.0
2018-Jun-11 04:25N 51°19' E 003°50'0 0.0
2018-Jun-11 03:58N 51°19' E 003°50'0 0.0
2018-Jun-11 03:28N 51°19' E 003°50'0 0.0
2018-Jun-11 02:58N 51°19' E 003°50'0 0.0
2018-Jun-11 02:28N 51°19' E 003°50'0 0.0
2018-Jun-11 01:55N 51°19' E 003°50'0 0.0
2018-Jun-11 01:28N 51°19' E 003°50'0 0.0
2018-Jun-11 00:58N 51°19' E 003°50'0 0.0
2018-Jun-11 00:28N 51°19' E 003°50'0 0.0
2018-Jun-10 23:58N 51°19' E 003°50'0 0.0
2018-Jun-10 23:28N 51°19' E 003°50'0 0.0
2018-Jun-10 22:58N 51°19' E 003°50'0 0.0
2018-Jun-10 22:28N 51°19' E 003°50'0 0.0
2018-Jun-10 21:58N 51°19' E 003°50'0 0.0
2018-Jun-10 21:28N 51°19' E 003°50'0 0.0
2018-Jun-10 20:58N 51°19' E 003°50'0 0.0
2018-Jun-10 20:28N 51°19' E 003°50'0 0.0
2018-Jun-10 19:58N 51°19' E 003°50'0 0.0
2018-Jun-10 19:28N 51°19' E 003°50'0 0.0
2018-Jun-10 18:58N 51°19' E 003°50'0 0.0
2018-Jun-10 18:28N 51°19' E 003°50'0 0.0
2018-Jun-10 17:58N 51°19' E 003°50'0 0.0
2018-Jun-10 17:28N 51°19' E 003°50'0 0.0
2018-Jun-10 16:58N 51°19' E 003°50'0 0.0
2018-Jun-10 16:28N 51°19' E 003°50'0 0.0
2018-Jun-10 15:58N 51°19' E 003°50'0 0.0
2018-Jun-10 15:28N 51°19' E 003°50'0 0.0
2018-Jun-10 14:58N 51°19' E 003°50'0 0.0
2018-Jun-10 13:58N 51°19' E 003°50'0 0.0
2018-Jun-10 13:28N 51°19' E 003°50'0 0.0
2018-Jun-10 12:58N 51°19' E 003°50'0 0.0
2018-Jun-10 12:28N 51°19' E 003°50'0 0.0
2018-Jun-10 11:58N 51°19' E 003°50'0 0.0
2018-Jun-10 11:28N 51°19' E 003°50'0 0.0
2018-Jun-10 10:58N 51°19' E 003°50'0 0.0
2018-Jun-10 10:28N 51°19' E 003°50'0 0.0
2018-Jun-10 09:58N 51°19' E 003°50'0 0.0
2018-Jun-10 09:28N 51°19' E 003°50'0 0.0
2018-Jun-10 08:58N 51°19' E 003°50'0 0.0
2018-Jun-10 08:28N 51°19' E 003°50'0 0.0
2018-Jun-10 07:58N 51°19' E 003°50'0 0.0
2018-Jun-10 07:28N 51°19' E 003°50'0 0.0
2018-Jun-10 06:58N 51°19' E 003°50'0 0.0
2018-Jun-10 06:28N 51°19' E 003°50'0 0.0
2018-Jun-10 05:58N 51°19' E 003°50'0 0.0
2018-Jun-10 05:28N 51°19' E 003°50'0 0.0
2018-Jun-10 04:58N 51°19' E 003°50'0 0.0
2018-Jun-10 04:28N 51°19' E 003°50'0 0.0
2018-Jun-10 03:58N 51°19' E 003°50'0 0.0
2018-Jun-10 03:28N 51°19' E 003°50'0 0.0
2018-Jun-10 02:58N 51°19' E 003°50'0 0.0
2018-Jun-10 02:28N 51°19' E 003°50'0 0.0
2018-Jun-10 01:58N 51°19' E 003°50'0 0.0
2018-Jun-10 01:28N 51°19' E 003°50'0 0.0
2018-Jun-10 00:58N 51°19' E 003°50'0 0.0
2018-Jun-10 00:28N 51°19' E 003°50'0 0.0
2018-Jun-09 23:58N 51°19' E 003°50'0 0.0
2018-Jun-09 23:28N 51°19' E 003°50'0 0.0
2018-Jun-09 22:58N 51°19' E 003°50'0 0.0
2018-Jun-09 22:28N 51°19' E 003°50'0 0.0
2018-Jun-09 21:58N 51°19' E 003°50'0 0.0
2018-Jun-09 21:28N 51°19' E 003°50'0 0.0
2018-Jun-09 20:58N 51°19' E 003°50'0 0.0
2018-Jun-09 20:28N 51°19' E 003°50'0 0.0
2018-Jun-09 19:58N 51°19' E 003°50'0 0.0
2018-Jun-09 19:28N 51°19' E 003°50'0 0.0
2018-Jun-09 18:58N 51°19' E 003°50'0 0.0
2018-Jun-09 18:28N 51°19' E 003°50'0 0.0
2018-Jun-09 17:58N 51°19' E 003°50'0 0.0
2018-Jun-09 17:28N 51°19' E 003°50'0 0.0
2018-Jun-09 16:58N 51°19' E 003°50'0 0.0
2018-Jun-09 16:25N 51°19' E 003°50'0 0.0
2018-Jun-09 15:58N 51°19' E 003°50'0 0.0
2018-Jun-09 14:58N 51°19' E 003°50'0 0.0
2018-Jun-09 14:28N 51°19' E 003°50'0 0.0
2018-Jun-09 13:58N 51°19' E 003°50'0 0.0
2018-Jun-09 13:28N 51°19' E 003°50'0 0.0
2018-Jun-09 12:58N 51°19' E 003°50'0 0.0
2018-Jun-09 12:28N 51°19' E 003°50'0 0.0
2018-Jun-09 11:58N 51°19' E 003°50'0 0.0
2018-Jun-09 11:28N 51°19' E 003°50'0 0.0
2018-Jun-09 10:58N 51°19' E 003°50'0 0.0
2018-Jun-09 10:28N 51°19' E 003°50'0 0.0
2018-Jun-09 09:58N 51°19' E 003°50'0 0.0
2018-Jun-09 09:28N 51°19' E 003°50'0 0.0
2018-Jun-09 08:58N 51°19' E 003°50'0 0.0
2018-Jun-09 08:28N 51°19' E 003°50'0 0.0
2018-Jun-09 07:58N 51°19' E 003°50'0 0.0
2018-Jun-09 07:28N 51°19' E 003°50'0 0.0
2018-Jun-09 06:58N 51°19' E 003°50'0 0.0
2018-Jun-09 06:28N 51°19' E 003°50'0 0.0
2018-Jun-09 05:58N 51°19' E 003°50'0 0.0
2018-Jun-09 05:28N 51°19' E 003°50'0 0.0
2018-Jun-09 04:58N 51°19' E 003°50'0 0.0
2018-Jun-09 04:28N 51°19' E 003°50'0 0.0
2018-Jun-09 03:58N 51°19' E 003°50'0 0.0
2018-Jun-09 03:28N 51°19' E 003°50'0 0.0
2018-Jun-09 02:58N 51°19' E 003°50'0 0.0
2018-Jun-09 02:28N 51°19' E 003°50'0 0.0
2018-Jun-09 01:58N 51°19' E 003°50'0 0.0
2018-Jun-09 01:28N 51°19' E 003°50'0 0.0
2018-Jun-09 00:58N 51°19' E 003°50'0 0.0
2018-Jun-09 00:28N 51°19' E 003°50'0 0.0
2018-Jun-08 23:58N 51°19' E 003°50'0 0.0
2018-Jun-08 23:28N 51°19' E 003°50'0 0.0
2018-Jun-08 22:58N 51°19' E 003°50'0 0.0
2018-Jun-08 22:28N 51°19' E 003°50'0 0.0
2018-Jun-08 21:58N 51°19' E 003°50'0 0.0
2018-Jun-08 21:28N 51°19' E 003°50'0 0.0
2018-Jun-08 20:58N 51°19' E 003°50'0 0.0
2018-Jun-08 20:28N 51°19' E 003°50'0 0.0
2018-Jun-08 19:58N 51°19' E 003°50'0 0.0
2018-Jun-08 19:28N 51°19' E 003°50'  
Track history (hours):
 
Tides and Currents Weather Stations Pressure Air Temp Water Temp Dewpoint Dewpoint Depression Visibility Wind Speed Wind Dir Waves Ship Positions

Gant Flair

Last reported at 2018-Jun-18 19:14 UTC. Time now 2018-Jun-20 13:23 UTC.
Position N 27°36' W 015°16'.

Length 169 m; draft 9.3 m.

Type: Cargo ship. MMSI: 636016926.

Date/timePositionNaut miles runAvg speedWind from/ knotsBaromVisibWave heightAir tempDewpointWater temp
2018-Jun-18 19:14N 27°36' W 015°16'312.2
2018-Jun-18 18:58N 27°39' W 015°15'612.0
2018-Jun-18 18:30N 27°43' W 015°12'612.0
2018-Jun-18 17:58N 27°49' W 015°09'612.2
2018-Jun-18 17:30N 27°54' W 015°06'612.1
2018-Jun-18 17:00N 28°00' W 015°04'612.1
2018-Jun-18 16:30N 28°06' W 015°01'612.1
2018-Jun-18 16:00N 28°12' W 014°59'611.8
2018-Jun-18 15:30N 28°17' W 014°57'611.8
2018-Jun-18 14:59N 28°23' W 014°54'612.1
2018-Jun-18 14:30N 28°29' W 014°53'612.0
2018-Jun-18 14:00N 28°34' W 014°51'611.6
2018-Jun-18 13:30N 28°40' W 014°49'6411.9
2018-Jun-18 08:05N 29°42' W 014°30'712.3
2018-Jun-18 07:29N 29°49' W 014°28'612.2
2018-Jun-18 07:00N 29°55' W 014°26'1612.0
2018-Jun-18 05:40N 30°10' W 014°21'211.8
2018-Jun-18 05:27N 30°13' W 014°20'48811.9
2018-Jun-16 12:16N 38°04' W 011°48'1611.8
2018-Jun-16 10:53N 38°20' W 011°43'411.9
2018-Jun-16 10:30N 38°24' W 011°41'612.2
2018-Jun-16 10:00N 38°30' W 011°39'612.1
2018-Jun-16 09:30N 38°36' W 011°37'611.9
2018-Jun-16 09:00N 38°42' W 011°35'612.0
2018-Jun-16 08:30N 38°48' W 011°33'611.9
2018-Jun-16 08:00N 38°54' W 011°31'612.0
2018-Jun-16 07:30N 38°59' W 011°29'612.2
2018-Jun-16 07:00N 39°05' W 011°27'612.1
2018-Jun-16 06:30N 39°11' W 011°25'611.9
2018-Jun-16 06:00N 39°17' W 011°23'611.9
2018-Jun-16 05:30N 39°23' W 011°22'611.9
2018-Jun-16 04:59N 39°29' W 011°20'611.8
2018-Jun-16 04:26N 39°35' W 011°17'511.8
2018-Jun-16 04:00N 39°40' W 011°15'612.0
2018-Jun-16 03:30N 39°45' W 011°13'611.9
2018-Jun-16 03:00N 39°51' W 011°11'612.1
2018-Jun-16 02:30N 39°57' W 011°09'1312.0
2018-Jun-16 01:27N 40°09' W 011°05'512.2
2018-Jun-16 01:00N 40°15' W 011°03'2312.2
2018-Jun-15 23:08N 40°37' W 010°55'212.5
2018-Jun-15 23:00N 40°38' W 010°55'612.3
2018-Jun-15 22:30N 40°44' W 010°53'612.3
2018-Jun-15 22:00N 40°50' W 010°51'612.0
2018-Jun-15 21:30N 40°56' W 010°49'611.9
2018-Jun-15 21:00N 41°01' W 010°47'1411.8
2018-Jun-15 19:49N 41°15' W 010°42'711.8
2018-Jun-15 19:13N 41°22' W 010°39'1812.2
2018-Jun-15 17:45N 41°39' W 010°33'412.2
2018-Jun-15 17:25N 41°43' W 010°32'512.3
2018-Jun-15 17:00N 41°48' W 010°30'2811.9
2018-Jun-15 14:40N 42°15' W 010°20'311.8
2018-Jun-15 14:25N 42°18' W 010°19'41011.6
2018-Jun-14 03:06N 48°28' W 006°08'2 9.0
2018-Jun-14 02:53N 48°30' W 006°07'4 9.0
2018-Jun-14 02:29N 48°33' W 006°05'4 9.0
2018-Jun-14 02:00N 48°37' W 006°02'5 9.3
2018-Jun-14 01:28N 48°41' W 005°58'5 9.9
2018-Jun-14 00:58N 48°46' W 005°55'510.1
2018-Jun-14 00:26N 48°51' W 005°52'710.5
2018-Jun-13 23:47N 48°55' W 005°45'1812.2
2018-Jun-13 22:19N 49°04' W 005°21'412.8
2018-Jun-13 21:58N 49°07' W 005°15'612.7
2018-Jun-13 21:30N 49°10' W 005°07'612.8
2018-Jun-13 21:00N 49°13' W 004°59'1212.2
2018-Jun-13 20:04N 49°19' W 004°44'1511.2
2018-Jun-13 18:42N 49°26' W 004°23'2610.1
2018-Jun-13 16:05N 49°40' W 003°48'2711.6
2018-Jun-13 13:45N 49°53' W 003°12'313.3
2018-Jun-13 13:30N 49°55' W 003°08'713.7
2018-Jun-13 13:00N 49°58' W 002°59'713.9
2018-Jun-13 12:30N 50°01' W 002°48'714.1
2018-Jun-13 12:00N 50°03' W 002°38'713.8
2018-Jun-13 11:29N 50°05' W 002°27'1212.9
2018-Jun-13 10:34N 50°08' W 002°09'112.1
2018-Jun-13 10:30N 50°08' W 002°08'611.6
2018-Jun-13 10:00N 50°10' W 001°60'510.7
2018-Jun-13 09:31N 50°11' W 001°52'5 9.8
2018-Jun-13 09:01N 50°12' W 001°44'5 9.2
2018-Jun-13 08:31N 50°14' W 001°37'4 8.8
2018-Jun-13 08:00N 50°15' W 001°31'4 8.4
2018-Jun-13 07:31N 50°16' W 001°24'4 8.4
2018-Jun-13 07:01N 50°17' W 001°18'4 8.5
2018-Jun-13 06:31N 50°18' W 001°12'4 8.8
2018-Jun-13 06:01N 50°20' W 001°05'5 9.8
2018-Jun-13 05:30N 50°21' W 000°58'611.1
2018-Jun-13 05:01N 50°22' W 000°49'812.0
2018-Jun-13 04:21N 50°24' W 000°37'412.6
2018-Jun-13 04:00N 50°26' W 000°31'713.0
2018-Jun-13 03:30N 50°28' W 000°21'2513.3
2018-Jun-13 01:37N 50°35' E 000°17'213.1
2018-Jun-13 01:30N 50°35' E 000°19'612.9
2018-Jun-13 01:00N 50°36' E 000°29'612.3
2018-Jun-13 00:30N 50°39' E 000°38'612.0
2018-Jun-13 00:00N 50°43' E 000°45'611.5
2018-Jun-12 23:30N 50°46' E 000°53'610.9
2018-Jun-12 22:56N 50°50' E 001°01'710.5
2018-Jun-12 22:15N 50°54' E 001°09'310.4
2018-Jun-12 22:00N 50°56' E 001°12'510.2
2018-Jun-12 21:30N 50°59' E 001°18'510.9
2018-Jun-12 21:01N 51°03' E 001°25'612.6
2018-Jun-12 20:30N 51°07' E 001°33'713.4
2018-Jun-12 20:00N 51°11' E 001°41'714.2
2018-Jun-12 19:30N 51°16' E 001°48'714.3
2018-Jun-12 19:01N 51°22' E 001°55'611.0
2018-Jun-12 18:30N 51°24' E 002°03'611.8
2018-Jun-12 18:01N 51°22' E 002°12'611.8
2018-Jun-12 17:30N 51°21' E 002°21'713.4
2018-Jun-12 17:01N 51°23' E 002°32'612.1
2018-Jun-12 16:30N 51°22' E 002°41'510.6
2018-Jun-12 16:00N 51°22' E 002°50'510.6
2018-Jun-12 15:30N 51°23' E 002°58'5 9.8
2018-Jun-12 15:00N 51°24' E 003°06'510.7
2018-Jun-12 14:30N 51°25' E 003°14'510.4
2018-Jun-12 14:00N 51°25' E 003°23'510.2
2018-Jun-12 13:30N 51°25' E 003°31'4 9.0
2018-Jun-12 13:00N 51°26' E 003°38'4 7.6
2018-Jun-12 12:31N 51°24' E 003°43'4 8.0
2018-Jun-12 12:00N 51°21' E 003°47'2 3.8
2018-Jun-12 11:30N 51°20' E 003°49'0 0.5
2018-Jun-12 11:00N 51°19' E 003°49'1 1.4
2018-Jun-12 10:30N 51°19' E 003°50'0 0.5
2018-Jun-12 09:58N 51°19' E 003°50'0 0.0
2018-Jun-12 09:28N 51°19' E 003°50'0 0.0
2018-Jun-12 08:58N 51°19' E 003°50'0 0.0
2018-Jun-12 08:28N 51°19' E 003°50'0 0.0
2018-Jun-12 07:58N 51°19' E 003°50'0 0.0
2018-Jun-12 07:28N 51°19' E 003°50'0 0.0
2018-Jun-12 06:58N 51°19' E 003°50'0 0.0
2018-Jun-12 06:28N 51°19' E 003°50'0 0.0
2018-Jun-12 05:58N 51°19' E 003°50'0 0.0
2018-Jun-12 05:28N 51°19' E 003°50'0 0.0
2018-Jun-12 04:58N 51°19' E 003°50'0 0.0
2018-Jun-12 04:28N 51°19' E 003°50'0 0.0
2018-Jun-12 03:58N 51°19' E 003°50'0 0.0
2018-Jun-12 03:28N 51°19' E 003°50'0 0.0
2018-Jun-12 02:58N 51°19' E 003°50'0 0.0
2018-Jun-12 02:28N 51°19' E 003°50'0 0.0
2018-Jun-12 01:58N 51°19' E 003°50'0 0.0
2018-Jun-12 01:28N 51°19' E 003°50'0 0.0
2018-Jun-12 00:58N 51°19' E 003°50'0 0.0
2018-Jun-12 00:28N 51°19' E 003°50'0 0.0
2018-Jun-11 23:58N 51°19' E 003°50'0 0.0
2018-Jun-11 23:28N 51°19' E 003°50'0 0.0
2018-Jun-11 22:58N 51°19' E 003°50'0 0.0
2018-Jun-11 22:28N 51°19' E 003°50'0 0.0
2018-Jun-11 21:58N 51°19' E 003°50'0 0.0
2018-Jun-11 21:28N 51°19' E 003°50'0 0.0
2018-Jun-11 20:58N 51°19' E 003°50'0 0.0
2018-Jun-11 20:28N 51°19' E 003°50'0 0.0
2018-Jun-11 19:58N 51°19' E 003°50'0 0.0
2018-Jun-11 19:28N 51°19' E 003°50'0 0.0
2018-Jun-11 18:58N 51°19' E 003°50'0 0.0
2018-Jun-11 18:28N 51°19' E 003°50'0 0.0
2018-Jun-11 17:58N 51°19' E 003°50'0 0.0
2018-Jun-11 17:28N 51°19' E 003°50'0 0.0
2018-Jun-11 16:58N 51°19' E 003°50'0 0.0
2018-Jun-11 16:28N 51°19' E 003°50'0 0.0
2018-Jun-11 15:58N 51°19' E 003°50'0 0.0
2018-Jun-11 15:28N 51°19' E 003°50'0 0.0
2018-Jun-11 14:58N 51°19' E 003°50'0 0.0
2018-Jun-11 14:28N 51°19' E 003°50'0 0.0
2018-Jun-11 13:58N 51°19' E 003°50'0 0.0
2018-Jun-11 13:28N 51°19' E 003°50'0 0.0
2018-Jun-11 12:58N 51°19' E 003°50'0 0.0
2018-Jun-11 12:28N 51°19' E 003°50'0 0.0
2018-Jun-11 11:58N 51°19' E 003°50'0 0.0
2018-Jun-11 11:28N 51°19' E 003°50'0 0.0
2018-Jun-11 10:58N 51°19' E 003°50'0 0.0
2018-Jun-11 10:28N 51°19' E 003°50'0 0.0
2018-Jun-11 09:58N 51°19' E 003°50'0 0.0
2018-Jun-11 09:28N 51°19' E 003°50'0 0.0
2018-Jun-11 08:58N 51°19' E 003°50'0 0.0
2018-Jun-11 08:28N 51°19' E 003°50'0 0.0
2018-Jun-11 07:58N 51°19' E 003°50'0 0.0
2018-Jun-11 07:28N 51°19' E 003°50'0 0.0
2018-Jun-11 06:58N 51°19' E 003°50'0 0.0
2018-Jun-11 06:28N 51°19' E 003°50'0 0.0
2018-Jun-11 05:58N 51°19' E 003°50'0 0.0
2018-Jun-11 05:28N 51°19' E 003°50'0 0.0
2018-Jun-11 04:58N 51°19' E 003°50'0 0.0
2018-Jun-11 04:25N 51°19' E 003°50'0 0.0
2018-Jun-11 03:58N 51°19' E 003°50'0 0.0
2018-Jun-11 03:28N 51°19' E 003°50'0 0.0
2018-Jun-11 02:58N 51°19' E 003°50'0 0.0
2018-Jun-11 02:28N 51°19' E 003°50'0 0.0
2018-Jun-11 01:55N 51°19' E 003°50'0 0.0
2018-Jun-11 01:28N 51°19' E 003°50'0 0.0
2018-Jun-11 00:58N 51°19' E 003°50'0 0.0
2018-Jun-11 00:28N 51°19' E 003°50'0 0.0
2018-Jun-10 23:58N 51°19' E 003°50'0 0.0
2018-Jun-10 23:28N 51°19' E 003°50'0 0.0
2018-Jun-10 22:58N 51°19' E 003°50'0 0.0
2018-Jun-10 22:28N 51°19' E 003°50'0 0.0
2018-Jun-10 21:58N 51°19' E 003°50'0 0.0
2018-Jun-10 21:28N 51°19' E 003°50'0 0.0
2018-Jun-10 20:58N 51°19' E 003°50'0 0.0
2018-Jun-10 20:28N 51°19' E 003°50'0 0.0
2018-Jun-10 19:58N 51°19' E 003°50'0 0.0
2018-Jun-10 19:28N 51°19' E 003°50'0 0.0
2018-Jun-10 18:58N 51°19' E 003°50'0 0.0
2018-Jun-10 18:28N 51°19' E 003°50'0 0.0
2018-Jun-10 17:58N 51°19' E 003°50'0 0.0
2018-Jun-10 17:28N 51°19' E 003°50'0 0.0
2018-Jun-10 16:58N 51°19' E 003°50'0 0.0
2018-Jun-10 16:28N 51°19' E 003°50'0 0.0
2018-Jun-10 15:58N 51°19' E 003°50'0 0.0
2018-Jun-10 15:28N 51°19' E 003°50'0 0.0
2018-Jun-10 14:58N 51°19' E 003°50'0 0.0
2018-Jun-10 13:58N 51°19' E 003°50'0 0.0
2018-Jun-10 13:28N 51°19' E 003°50'0 0.0
2018-Jun-10 12:58N 51°19' E 003°50'0 0.0
2018-Jun-10 12:28N 51°19' E 003°50'0 0.0
2018-Jun-10 11:58N 51°19' E 003°50'0 0.0
2018-Jun-10 11:28N 51°19' E 003°50'0 0.0
2018-Jun-10 10:58N 51°19' E 003°50'0 0.0
2018-Jun-10 10:28N 51°19' E 003°50'0 0.0
2018-Jun-10 09:58N 51°19' E 003°50'0 0.0
2018-Jun-10 09:28N 51°19' E 003°50'0 0.0
2018-Jun-10 08:58N 51°19' E 003°50'0 0.0
2018-Jun-10 08:28N 51°19' E 003°50'0 0.0
2018-Jun-10 07:58N 51°19' E 003°50'0 0.0
2018-Jun-10 07:28N 51°19' E 003°50'0 0.0
2018-Jun-10 06:58N 51°19' E 003°50'0 0.0
2018-Jun-10 06:28N 51°19' E 003°50'0 0.0
2018-Jun-10 05:58N 51°19' E 003°50'0 0.0
2018-Jun-10 05:28N 51°19' E 003°50'0 0.0
2018-Jun-10 04:58N 51°19' E 003°50'0 0.0
2018-Jun-10 04:28N 51°19' E 003°50'0 0.0
2018-Jun-10 03:58N 51°19' E 003°50'0 0.0
2018-Jun-10 03:28N 51°19' E 003°50'0 0.0
2018-Jun-10 02:58N 51°19' E 003°50'0 0.0
2018-Jun-10 02:28N 51°19' E 003°50'0 0.0
2018-Jun-10 01:58N 51°19' E 003°50'0 0.0
2018-Jun-10 01:28N 51°19' E 003°50'0 0.0
2018-Jun-10 00:58N 51°19' E 003°50'0 0.0
2018-Jun-10 00:28N 51°19' E 003°50'0 0.0
2018-Jun-09 23:58N 51°19' E 003°50'0 0.0
2018-Jun-09 23:28N 51°19' E 003°50'0 0.0
2018-Jun-09 22:58N 51°19' E 003°50'0 0.0
2018-Jun-09 22:28N 51°19' E 003°50'0 0.0
2018-Jun-09 21:58N 51°19' E 003°50'0 0.0
2018-Jun-09 21:28N 51°19' E 003°50'0 0.0
2018-Jun-09 20:58N 51°19' E 003°50'0 0.0
2018-Jun-09 20:28N 51°19' E 003°50'0 0.0
2018-Jun-09 19:58N 51°19' E 003°50'0 0.0
2018-Jun-09 19:28N 51°19' E 003°50'0 0.0
2018-Jun-09 18:58N 51°19' E 003°50'0 0.0
2018-Jun-09 18:28N 51°19' E 003°50'0 0.0
2018-Jun-09 17:58N 51°19' E 003°50'0 0.0
2018-Jun-09 17:28N 51°19' E 003°50'0 0.0
2018-Jun-09 16:58N 51°19' E 003°50'0 0.0
2018-Jun-09 16:25N 51°19' E 003°50'0 0.0
2018-Jun-09 15:58N 51°19' E 003°50'0 0.0
2018-Jun-09 14:58N 51°19' E 003°50'0 0.0
2018-Jun-09 14:28N 51°19' E 003°50'0 0.0
2018-Jun-09 13:58N 51°19' E 003°50'0 0.0
2018-Jun-09 13:28N 51°19' E 003°50'0 0.0
2018-Jun-09 12:58N 51°19' E 003°50'0 0.0
2018-Jun-09 12:28N 51°19' E 003°50'0 0.0
2018-Jun-09 11:58N 51°19' E 003°50'0 0.0
2018-Jun-09 11:28N 51°19' E 003°50'0 0.0
2018-Jun-09 10:58N 51°19' E 003°50'0 0.0
2018-Jun-09 10:28N 51°19' E 003°50'0 0.0
2018-Jun-09 09:58N 51°19' E 003°50'0 0.0
2018-Jun-09 09:28N 51°19' E 003°50'0 0.0
2018-Jun-09 08:58N 51°19' E 003°50'0 0.0
2018-Jun-09 08:28N 51°19' E 003°50'0 0.0
2018-Jun-09 07:58N 51°19' E 003°50'0 0.0
2018-Jun-09 07:28N 51°19' E 003°50'0 0.0
2018-Jun-09 06:58N 51°19' E 003°50'0 0.0
2018-Jun-09 06:28N 51°19' E 003°50'0 0.0
2018-Jun-09 05:58N 51°19' E 003°50'0 0.0
2018-Jun-09 05:28N 51°19' E 003°50'0 0.0
2018-Jun-09 04:58N 51°19' E 003°50'0 0.0
2018-Jun-09 04:28N 51°19' E 003°50'0 0.0
2018-Jun-09 03:58N 51°19' E 003°50'0 0.0
2018-Jun-09 03:28N 51°19' E 003°50'0 0.0
2018-Jun-09 02:58N 51°19' E 003°50'0 0.0
2018-Jun-09 02:28N 51°19' E 003°50'0 0.0
2018-Jun-09 01:58N 51°19' E 003°50'0 0.0
2018-Jun-09 01:28N 51°19' E 003°50'0 0.0
2018-Jun-09 00:58N 51°19' E 003°50'0 0.0
2018-Jun-09 00:28N 51°19' E 003°50'0 0.0
2018-Jun-08 23:58N 51°19' E 003°50'0 0.0
2018-Jun-08 23:28N 51°19' E 003°50'0 0.0
2018-Jun-08 22:58N 51°19' E 003°50'0 0.0
2018-Jun-08 22:28N 51°19' E 003°50'0 0.0
2018-Jun-08 21:58N 51°19' E 003°50'0 0.0
2018-Jun-08 21:28N 51°19' E 003°50'0 0.0
2018-Jun-08 20:58N 51°19' E 003°50'0 0.0
2018-Jun-08 20:28N 51°19' E 003°50'0 0.0
2018-Jun-08 19:58N 51°19' E 003°50'0 0.0
2018-Jun-08 19:28N 51°19' E 003°50'  

Dump ship's entire track history